Time;durP1;ratioP1;P1;durP2;ratioP2;P2;SDS_P1;SDS_P2;PMS_P1;PMS_P2;Temp;Humidity;BMP_temperature;BMP_pressure;BME280_temperature;BME280_humidity;BME280_pressure;Samples;Min_cycle;Max_cycle;Signal;HPM_P1;HPM_P2
2020/12/11 00:02:06;;;;;;;22.73;18.30;;;6.10;91.50;13.80;98656.00;;;;5051604;28;20254;-67
2020/12/11 00:04:31;;;;;;;20.00;16.07;;;6.10;91.50;13.90;98645.00;;;;5033867;28;20235;-68
2020/12/11 00:06:58;;;;;;;19.60;15.83;;;6.10;91.40;13.80;98656.00;;;;5017923;28;20194;-67
2020/12/11 00:09:27;;;;;;;21.63;16.67;;;6.10;91.40;13.90;98654.00;;;;5017943;28;20573;-67
2020/12/11 00:11:53;;;;;;;22.55;17.77;;;6.10;91.40;13.90;98649.00;;;;5051064;28;20207;-67
2020/12/11 00:14:19;;;;;;;23.35;17.15;;;6.10;91.40;13.90;98647.00;;;;5034371;28;20201;-67
2020/12/11 00:16:45;;;;;;;20.07;16.50;;;6.10;91.40;13.80;98643.00;;;;5033550;28;20259;-67
2020/12/11 00:19:11;;;;;;;20.63;15.90;;;6.10;91.50;13.80;98650.00;;;;5017912;28;20577;-67
2020/12/11 00:21:40;;;;;;;21.53;17.40;;;6.10;91.50;13.70;98649.00;;;;5038772;28;20220;-67
2020/12/11 00:24:07;;;;;;;22.23;17.42;;;6.10;91.50;13.80;98629.00;;;;5051284;28;20244;-67
2020/12/11 00:26:33;;;;;;;20.95;16.00;;;6.10;91.40;13.70;98650.00;;;;5010067;28;20389;-68
2020/12/11 00:28:58;;;;;;;21.43;17.83;;;6.10;91.40;13.80;98642.00;;;;5029664;28;20190;-67
2020/12/11 00:31:24;;;;;;;21.37;17.33;;;6.10;91.50;13.70;98648.00;;;;5030147;28;20199;-67
2020/12/11 00:33:51;;;;;;;21.75;16.60;;;6.10;91.40;13.80;98652.00;;;;5012942;28;20226;-67
2020/12/11 00:36:16;;;;;;;21.05;16.83;;;6.10;91.40;13.90;98647.00;;;;4996575;28;20685;-67
2020/12/11 00:38:42;;;;;;;21.10;15.60;;;6.10;91.50;13.70;98643.00;;;;5029314;28;20186;-67
2020/12/11 00:41:08;;;;;;;22.37;16.37;;;6.10;91.50;13.80;98654.00;;;;5013733;28;20588;-67
2020/12/11 00:43:35;;;;;;;22.33;17.10;;;6.10;91.40;13.80;98659.00;;;;5012994;28;20198;-67
2020/12/11 00:46:01;;;;;;;25.90;17.70;;;6.00;91.40;13.80;98656.00;;;;5031341;28;20276;-67
2020/12/11 00:48:26;;;;;;;19.80;15.43;;;6.00;91.40;13.80;98656.00;;;;5031109;28;20179;-67
2020/12/11 00:50:52;;;;;;;22.47;17.47;;;6.00;91.40;13.80;98652.00;;;;5011768;28;20669;-67
2020/12/11 00:53:18;;;;;;;21.13;16.03;;;6.00;91.40;13.70;98656.00;;;;5013196;28;20595;-67
2020/12/11 00:55:43;;;;;;;22.07;16.17;;;6.00;91.40;13.70;98610.00;;;;5030105;28;20217;-67
2020/12/11 00:58:09;;;;;;;24.47;18.20;;;6.00;91.40;13.80;98652.00;;;;5012289;28;20175;-67
2020/12/11 01:00:35;;;;;;;21.53;15.60;;;6.00;91.40;13.70;98659.00;;;;5013568;28;20183;-67
2020/12/11 01:03:00;;;;;;;26.17;17.17;;;6.00;91.40;13.70;98663.00;;;;5013094;28;20276;-66
2020/12/11 01:05:26;;;;;;;20.00;16.37;;;6.00;91.40;13.70;98661.00;;;;5029704;28;20182;-68
2020/12/11 01:07:52;;;;;;;23.20;17.63;;;6.00;91.40;13.80;98660.00;;;;5030235;28;20190;-67
2020/12/11 01:10:17;;;;;;;23.67;16.20;;;6.00;91.40;13.60;98649.00;;;;5030426;28;20257;-66
2020/12/11 01:12:43;;;;;;;22.27;17.20;;;6.00;91.40;13.70;98650.00;;;;5030195;28;20211;-67
2020/12/11 01:15:09;;;;;;;21.27;16.00;;;6.00;91.40;13.80;98643.00;;;;5030009;28;20228;-67
2020/12/11 01:17:34;;;;;;;24.17;17.80;;;6.00;91.40;13.70;98646.00;;;;4996343;28;20206;-67
2020/12/11 01:20:00;;;;;;;24.30;17.03;;;6.00;91.40;13.60;98654.00;;;;5029943;28;20256;-66
2020/12/11 01:22:26;;;;;;;19.80;15.57;;;6.00;91.40;13.60;98641.00;;;;5030815;28;20685;-67
2020/12/11 01:24:51;;;;;;;25.60;18.10;;;6.00;91.40;13.80;98649.00;;;;5013258;28;20258;-67
2020/12/11 01:27:17;;;;;;;20.47;16.77;;;6.00;91.40;13.80;98652.00;;;;5029741;28;20216;-66
2020/12/11 01:29:43;;;;;;;24.03;17.33;;;6.00;91.40;13.70;98656.00;;;;5030396;28;20531;-67
2020/12/11 01:32:08;;;;;;;21.10;16.23;;;6.00;91.40;13.70;98662.00;;;;5030428;28;20227;-67
2020/12/11 01:34:34;;;;;;;23.00;17.00;;;6.00;91.40;13.80;98652.00;;;;5029125;28;20472;-67
2020/12/11 01:37:04;;;;;;;21.60;16.10;;;6.00;91.40;13.70;98650.00;;;;5029840;28;20693;-67
2020/12/11 01:39:30;;;;;;;21.33;16.20;;;6.00;91.40;13.70;98647.00;;;;4996775;28;20175;-67
2020/12/11 01:41:57;;;;;;;25.67;17.67;;;6.00;91.40;13.70;98651.00;;;;4996566;28;20233;-68
2020/12/11 01:44:23;;;;;;;19.88;15.82;;;6.00;91.40;13.70;98645.00;;;;5012683;28;20179;-67
2020/12/11 01:46:50;;;;;;;23.20;17.70;;;6.00;91.40;13.80;98656.00;;;;5029588;28;20673;-68
2020/12/11 01:49:15;;;;;;;24.55;16.90;;;6.00;91.40;13.70;98658.00;;;;5028671;28;20183;-67
2020/12/11 01:51:41;;;;;;;22.27;17.50;;;6.00;91.40;13.70;98651.00;;;;5029521;28;20202;-68
2020/12/11 01:54:07;;;;;;;21.00;16.60;;;6.00;91.40;13.70;98650.00;;;;4996194;28;20480;-67
2020/12/11 01:56:46;;;;;;;22.50;17.80;;;6.00;91.40;13.70;98655.00;;;;5012566;28;20210;-68
2020/12/11 01:59:22;;;;;;;21.20;16.85;;;6.00;91.40;13.60;98640.00;;;;5014723;28;20660;-67
2020/12/11 02:01:48;;;;;;;20.52;15.93;;;6.00;91.40;13.60;98648.00;;;;5013749;28;20260;-67
2020/12/11 02:04:14;;;;;;;23.07;16.80;;;6.00;91.40;13.70;98645.00;;;;5012430;28;20534;-68
2020/12/11 02:06:39;;;;;;;22.13;17.90;;;6.00;91.40;13.60;98648.00;;;;4996635;28;20213;-67
2020/12/11 02:09:05;;;;;;;23.17;17.10;;;6.00;91.80;13.70;98654.00;;;;5012027;28;20228;-68
2020/12/11 02:11:31;;;;;;;24.57;17.60;;;6.00;91.40;13.70;98646.00;;;;5012883;28;20248;-67
2020/12/11 02:13:56;;;;;;;22.63;15.60;;;6.00;91.40;13.50;98638.00;;;;5029655;28;20179;-67
2020/12/11 02:16:23;;;;;;;22.53;16.73;;;6.00;91.40;13.70;98631.00;;;;5012461;28;20217;-68
2020/12/11 02:18:52;;;;;;;23.58;17.77;;;6.00;91.40;13.60;98636.00;;;;5012168;28;20186;-67
2020/12/11 02:21:17;;;;;;;22.33;18.30;;;6.00;91.40;13.80;98623.00;;;;5029120;28;20198;-67
2020/12/11 02:23:44;;;;;;;21.27;16.77;;;6.00;91.40;13.70;98639.00;;;;4995443;28;20217;-67
2020/12/11 02:26:10;;;;;;;22.48;16.27;;;6.00;91.40;13.60;98633.00;;;;5028979;28;20199;-67
2020/12/11 02:28:35;;;;;;;20.25;17.10;;;6.00;91.40;13.70;98633.00;;;;4979066;28;20190;-68
2020/12/11 02:31:04;;;;;;;20.90;16.40;;;6.00;91.40;13.70;98628.00;;;;4995912;28;20195;-67
2020/12/11 02:33:30;;;;;;;22.42;17.55;;;6.00;91.40;13.60;98629.00;;;;4996430;28;20456;-67
2020/12/11 02:35:56;;;;;;;24.60;16.50;;;6.00;91.40;13.50;98626.00;;;;4995395;28;20214;-67
2020/12/11 02:38:23;;;;;;;20.27;17.80;;;6.00;91.40;13.60;98622.00;;;;5012077;28;20446;-67
2020/12/11 02:40:54;;;;;;;23.40;17.58;;;6.00;91.40;13.70;98618.00;;;;5028437;28;20195;-67
2020/12/11 02:43:19;;;;;;;23.98;16.75;;;6.00;91.40;13.70;98626.00;;;;4995869;28;20189;-67
2020/12/11 02:45:47;;;;;;;20.90;16.40;;;6.00;91.40;13.70;98628.00;;;;5011638;28;20183;-67
2020/12/11 02:48:12;;;;;;;21.63;15.40;;;6.00;91.40;13.60;98626.00;;;;4995865;28;20888;-67
2020/12/11 02:50:39;;;;;;;23.73;16.97;;;6.00;91.40;13.60;98619.00;;;;5029017;28;20207;-67
2020/12/11 02:53:05;;;;;;;24.23;17.10;;;6.00;91.40;13.70;98623.00;;;;5028857;28;20520;-67
2020/12/11 02:55:30;;;;;;;22.53;17.33;;;6.00;91.40;13.70;98621.00;;;;5028009;28;20298;-67
2020/12/11 02:57:56;;;;;;;20.40;15.80;;;6.00;91.40;13.60;98617.00;;;;4995432;28;20404;-67
2020/12/11 03:00:22;;;;;;;23.03;16.70;;;6.00;91.40;13.70;98617.00;;;;5029629;28;20653;-68
2020/12/11 03:02:47;;;;;;;26.20;17.90;;;6.00;91.40;13.70;98613.00;;;;5011745;28;20202;-67
2020/12/11 03:05:13;;;;;;;23.40;17.07;;;6.00;91.40;13.70;98609.00;;;;5028021;28;20434;-67
2020/12/11 03:07:39;;;;;;;21.40;16.00;;;5.90;91.40;13.70;98612.00;;;;5012240;28;20225;-66
2020/12/11 03:10:04;;;;;;;21.63;16.27;;;5.90;91.40;13.60;98611.00;;;;5028400;28;20296;-67
2020/12/11 03:12:30;;;;;;;22.60;17.30;;;5.90;91.40;13.60;98609.00;;;;5028512;28;20198;-66
2020/12/11 03:14:56;;;;;;;23.73;18.40;;;6.00;91.40;13.70;98602.00;;;;5028054;28;20665;-67
2020/12/11 03:17:21;;;;;;;23.17;17.43;;;6.00;91.40;13.60;98611.00;;;;5028627;28;20211;-66
2020/12/11 03:19:47;;;;;;;20.67;17.40;;;5.90;91.40;13.70;98604.00;;;;5011329;28;20179;-66
2020/12/11 03:22:13;;;;;;;21.60;16.63;;;5.90;91.40;13.70;98610.00;;;;5028888;28;20203;-66
2020/12/11 03:24:38;;;;;;;21.50;15.87;;;5.90;91.40;13.60;98608.00;;;;5028365;28;20190;-67
2020/12/11 03:27:04;;;;;;;21.80;16.10;;;5.90;91.40;13.80;98607.00;;;;5011545;28;20682;-67
2020/12/11 03:29:30;;;;;;;21.83;16.33;;;5.90;91.40;13.60;98608.00;;;;5028401;28;20210;-67
2020/12/11 03:31:55;;;;;;;27.27;18.00;;;5.90;91.40;13.60;98585.00;;;;5029355;28;20657;-67
2020/12/11 03:34:21;;;;;;;22.10;16.53;;;5.90;91.40;13.70;98599.00;;;;5028855;28;20345;-67
2020/12/11 03:36:50;;;;;;;25.00;16.90;;;5.90;91.40;13.50;98596.00;;;;5029485;28;20199;-67
2020/12/11 03:39:16;;;;;;;24.58;18.20;;;5.90;91.40;13.50;98598.00;;;;5012216;28;20183;-67
2020/12/11 03:41:43;;;;;;;23.20;17.07;;;5.90;91.40;13.70;98603.00;;;;5031199;28;20217;-67
2020/12/11 03:44:08;;;;;;;22.98;16.83;;;5.90;91.40;13.80;98601.00;;;;4999405;28;20412;-67
2020/12/11 03:46:34;;;;;;;22.50;17.57;;;5.90;91.40;13.70;98606.00;;;;5031479;28;20202;-67
2020/12/11 03:49:00;;;;;;;21.80;16.40;;;5.90;91.40;13.70;98609.00;;;;5032986;28;20408;-68
2020/12/11 03:51:26;;;;;;;23.90;17.40;;;5.90;91.40;13.70;98615.00;;;;5015070;28;20547;-67
2020/12/11 03:53:51;;;;;;;21.33;16.50;;;5.90;91.40;13.60;98615.00;;;;5032327;28;20175;-67
2020/12/11 03:56:18;;;;;;;23.67;16.17;;;5.90;91.40;13.80;98612.00;;;;5014831;28;20199;-67
2020/12/11 03:58:44;;;;;;;22.20;16.30;;;5.90;91.40;13.70;98619.00;;;;5015173;28;20197;-67
2020/12/11 04:01:13;;;;;;;21.70;17.55;;;5.90;91.40;13.70;98627.00;;;;5014733;28;20304;-67
2020/12/11 04:03:39;;;;;;;24.98;18.25;;;5.90;91.40;13.70;98617.00;;;;4999166;28;20183;-66
2020/12/11 04:06:16;;;;;;;22.38;16.65;;;5.90;91.40;13.70;98608.00;;;;5013359;28;20229;-67
2020/12/11 04:08:42;;;;;;;22.30;17.02;;;5.90;91.40;13.50;98606.00;;;;4999597;28;20183;-67
2020/12/11 04:11:10;;;;;;;25.42;17.17;;;5.90;91.40;13.60;98613.00;;;;5014667;28;20261;-66
2020/12/11 04:13:36;;;;;;;21.52;15.20;;;5.90;91.40;13.50;98615.00;;;;5014967;28;20417;-67
2020/12/11 04:16:02;;;;;;;22.43;16.50;;;5.90;91.40;13.60;98617.00;;;;5014062;28;20284;-66
2020/12/11 04:18:27;;;;;;;23.33;17.00;;;5.90;91.40;13.60;98621.00;;;;4998287;28;20187;-67
2020/12/11 04:20:55;;;;;;;20.83;16.03;;;5.90;91.40;13.70;98625.00;;;;5030651;28;20234;-67
2020/12/11 04:23:21;;;;;;;23.30;17.30;;;5.90;91.40;13.50;98612.00;;;;5014513;28;20183;-67
2020/12/11 04:25:46;;;;;;;21.83;15.67;;;5.90;91.40;13.70;98617.00;;;;5030708;28;20194;-67
2020/12/11 04:28:12;;;;;;;23.23;17.00;;;5.90;91.40;13.70;98606.00;;;;5030891;28;20753;-67
2020/12/11 04:30:37;;;;;;;23.07;17.50;;;5.90;91.40;13.50;98609.00;;;;5014151;28;20191;-67
2020/12/11 04:33:03;;;;;;;20.07;16.30;;;5.90;91.40;13.60;98617.00;;;;5031660;28;20322;-67
2020/12/11 04:35:29;;;;;;;22.10;16.57;;;5.90;91.40;13.60;98612.00;;;;5014212;28;20210;-66
2020/12/11 04:37:54;;;;;;;21.63;17.83;;;5.90;91.40;13.60;98620.00;;;;5013925;28;20313;-67
2020/12/11 04:40:20;;;;;;;21.30;17.00;;;5.90;91.40;13.60;98613.00;;;;5014543;28;20179;-67
2020/12/11 04:42:46;;;;;;;21.00;16.97;;;5.90;91.40;13.50;98612.00;;;;5014040;28;20274;-67
2020/12/11 04:45:15;;;;;;;21.65;16.25;;;5.90;91.40;13.50;98616.00;;;;4997621;28;20206;-67
2020/12/11 04:47:44;;;;;;;21.35;15.85;;;5.90;91.40;13.50;98615.00;;;;5031625;28;20211;-67
2020/12/11 04:50:12;;;;;;;20.65;16.10;;;5.90;91.40;13.60;98615.00;;;;5029937;28;20194;-67
2020/12/11 04:52:39;;;;;;;23.60;16.80;;;5.90;91.40;13.60;98612.00;;;;4981207;28;20217;-67
2020/12/11 04:55:05;;;;;;;21.15;17.23;;;5.90;91.40;13.60;98612.00;;;;4997929;28;20214;-68
2020/12/11 04:57:32;;;;;;;22.02;15.63;;;5.90;91.40;13.50;98617.00;;;;5013497;28;20677;-67
2020/12/11 04:59:58;;;;;;;20.08;16.67;;;5.90;91.40;13.60;98613.00;;;;5013988;28;20175;-67
2020/12/11 05:02:26;;;;;;;20.33;16.40;;;5.90;91.40;13.70;98612.00;;;;5029735;28;20705;-67
2020/12/11 05:04:53;;;;;;;19.45;15.45;;;5.90;91.40;13.60;98616.00;;;;5029920;28;20584;-67
2020/12/11 05:07:19;;;;;;;20.88;16.35;;;5.90;91.40;13.60;98618.00;;;;5013726;28;20208;-66
2020/12/11 05:09:57;;;;;;;22.23;16.27;;;5.90;91.40;13.70;98615.00;;;;5013490;28;20182;-66
2020/12/11 05:12:23;;;;;;;21.02;16.13;;;5.90;91.40;13.60;98610.00;;;;5029669;28;20436;-66
2020/12/11 05:14:58;;;;;;;23.38;17.80;;;5.90;91.40;13.70;98618.00;;;;5013749;28;20222;-66
2020/12/11 05:17:33;;;;;;;20.67;15.35;;;5.90;91.40;13.50;98614.00;;;;5029647;28;20579;-67
2020/12/11 05:19:58;;;;;;;20.30;15.60;;;5.90;91.40;13.50;98616.00;;;;5014308;28;20194;-67
2020/12/11 05:22:26;;;;;;;21.20;16.40;;;5.90;91.40;13.60;98609.00;;;;5013082;28;20221;-66
2020/12/11 05:24:53;;;;;;;19.98;16.67;;;5.90;91.80;13.60;98616.00;;;;5013587;28;20442;-66
2020/12/11 05:27:38;;;;;;;18.80;15.80;;;5.90;91.50;13.60;98618.00;;;;5013138;28;20199;-66
2020/12/11 05:30:07;;;;;;;20.38;14.77;;;5.90;91.40;13.50;98617.00;;;;5030169;28;20183;-67
2020/12/11 05:32:40;;;;;;;19.23;15.18;;;5.90;91.50;13.50;98612.00;;;;5030501;28;20230;-66
2020/12/11 05:35:28;;;;;;;20.45;15.20;;;5.90;91.40;13.40;98614.00;;;;5013271;28;20242;-66
2020/12/11 05:38:03;;;;;;;22.98;16.75;;;5.90;91.40;13.50;98622.00;;;;5006350;28;20202;-67
2020/12/11 05:40:37;;;;;;;20.20;15.70;;;5.80;91.40;13.50;98614.00;;;;5013483;28;20661;-67
2020/12/11 05:43:09;;;;;;;21.45;15.20;;;5.90;91.40;13.50;98613.00;;;;5013278;28;20249;-66
2020/12/11 05:45:39;;;;;;;18.75;14.43;;;5.80;91.40;13.50;98621.00;;;;5029892;28;20276;-66
2020/12/11 05:48:06;;;;;;;20.10;15.80;;;5.80;91.40;13.40;98608.00;;;;5013126;28;20518;-66
2020/12/11 05:50:33;;;;;;;21.30;15.95;;;5.80;91.40;13.60;98616.00;;;;5012904;28;20587;-66
2020/12/11 05:52:58;;;;;;;19.45;14.98;;;5.90;91.50;13.50;98606.00;;;;5012979;28;20187;-67
2020/12/11 05:55:24;;;;;;;20.47;15.57;;;5.80;91.80;13.50;98607.00;;;;4996512;28;20217;-66
2020/12/11 05:57:57;;;;;;;19.00;16.10;;;5.80;91.40;13.50;98612.00;;;;5012865;28;20238;-67
2020/12/11 06:00:23;;;;;;;21.08;15.57;;;5.80;91.40;13.70;98620.00;;;;4996622;28;20183;-66
2020/12/11 06:02:50;;;;;;;22.13;15.90;;;5.80;91.40;13.60;98618.00;;;;5027619;28;20202;-67
2020/12/11 06:05:17;;;;;;;19.35;15.18;;;5.80;91.40;13.70;98631.00;;;;5012320;28;20175;-67
2020/12/11 06:07:44;;;;;;;19.73;15.10;;;5.80;91.40;13.60;98633.00;;;;5029135;28;20588;-66
2020/12/11 06:10:20;;;;;;;21.08;16.17;;;5.80;91.40;13.60;98625.00;;;;5012597;28;20183;-67
2020/12/11 06:12:46;;;;;;;20.27;15.07;;;5.80;91.40;13.40;98618.00;;;;5028932;28;20205;-67
2020/12/11 06:15:22;;;;;;;18.20;14.27;;;5.80;91.40;13.50;98620.00;;;;5028661;28;20618;-66
2020/12/11 06:18:15;;;;;;;18.67;13.88;;;5.80;91.40;13.50;98626.00;;;;5030077;28;20502;-66
2020/12/11 06:20:40;;;;;;;19.35;14.50;;;5.80;91.50;13.40;98620.00;;;;5028799;28;20187;-67
2020/12/11 06:23:29;;;;;;;20.63;14.90;;;5.80;91.80;13.30;98625.00;;;;5011797;28;20228;-66
2020/12/11 06:25:55;;;;;;;21.00;14.68;;;5.80;91.50;13.50;98611.00;;;;5013407;28;20605;-66
2020/12/11 06:28:48;;;;;;;19.30;14.80;;;5.80;91.50;13.40;98618.00;;;;5029582;28;20179;-66
2020/12/11 06:31:18;;;;;;;17.20;14.10;;;5.80;91.50;13.50;98613.00;;;;5028734;28;20557;-66
2020/12/11 06:33:48;;;;;;;17.92;13.30;;;5.80;91.50;13.30;98624.00;;;;4996477;28;20232;-67
2020/12/11 06:36:14;;;;;;;17.35;13.88;;;5.80;91.40;13.40;98611.00;;;;5012196;28;20210;-67
2020/12/11 06:38:40;;;;;;;18.70;13.32;;;5.80;91.50;13.50;98623.00;;;;5012739;28;20305;-67
2020/12/11 06:41:06;;;;;;;17.02;13.48;;;5.80;91.50;13.50;98616.00;;;;5028589;28;20257;-67
2020/12/11 06:43:47;;;;;;;18.00;14.27;;;5.80;91.50;13.50;98624.00;;;;5012056;28;20190;-66
2020/12/11 06:46:26;;;;;;;16.02;12.57;;;5.80;91.50;13.40;98613.00;;;;5030549;28;20292;-66
2020/12/11 06:49:17;;;;;;;15.27;12.85;;;5.80;91.50;13.40;98617.00;;;;5028498;28;20182;-66
2020/12/11 06:51:46;;;;;;;17.45;12.85;;;5.80;91.50;13.50;98622.00;;;;5028680;28;20294;-66
2020/12/11 06:54:20;;;;;;;17.48;13.48;;;5.80;91.50;13.40;98622.00;;;;5029142;28;20238;-66
2020/12/11 06:56:47;;;;;;;17.13;13.50;;;5.80;91.50;13.30;98626.00;;;;5029089;28;20661;-66
2020/12/11 06:59:31;;;;;;;17.17;13.35;;;5.80;91.50;13.40;98619.00;;;;5029275;28;20638;-66
2020/12/11 07:02:03;;;;;;;18.35;12.23;;;5.80;91.50;13.40;98622.00;;;;5029339;28;20195;-66
2020/12/11 07:04:42;;;;;;;14.60;12.02;;;5.80;91.50;13.40;98605.00;;;;5027642;28;20249;-66
2020/12/11 07:07:07;;;;;;;15.65;11.80;;;5.80;91.50;13.30;98606.00;;;;5012351;28;20402;-67
2020/12/11 07:09:44;;;;;;;16.40;13.37;;;5.80;91.50;13.30;98608.00;;;;5012040;28;20369;-67
2020/12/11 07:12:10;;;;;;;14.55;12.25;;;5.80;91.50;13.30;98611.00;;;;4996356;28;20555;-66
2020/12/11 07:14:36;;;;;;;16.85;13.07;;;5.80;91.50;13.40;98618.00;;;;4998532;28;20206;-66
2020/12/11 07:17:02;;;;;;;14.87;11.60;;;5.80;91.50;13.30;98622.00;;;;5033762;28;20199;-66
2020/12/11 07:19:40;;;;;;;16.13;12.27;;;5.80;91.50;13.40;98615.00;;;;5015167;28;20179;-66
2020/12/11 07:22:06;;;;;;;14.55;12.00;;;5.80;91.50;13.30;98618.00;;;;5017038;28;20445;-66
2020/12/11 07:24:35;;;;;;;15.80;13.23;;;5.80;91.50;13.50;98609.00;;;;4983756;28;20190;-66
2020/12/11 07:27:05;;;;;;;14.38;11.95;;;5.80;91.50;13.40;98617.00;;;;5032781;28;20453;-66
2020/12/11 07:29:31;;;;;;;14.60;11.77;;;5.80;91.50;13.40;98624.00;;;;5015753;28;20781;-66
2020/12/11 07:31:57;;;;;;;17.10;12.20;;;5.80;91.50;13.40;98619.00;;;;5033237;28;20277;-66
2020/12/11 07:34:25;;;;;;;15.00;11.33;;;5.80;91.50;13.40;98615.00;;;;5022781;28;20700;-66
2020/12/11 07:36:56;;;;;;;13.27;10.57;;;5.80;91.50;13.40;98607.00;;;;5002494;28;20213;-66
2020/12/11 07:39:27;;;;;;;14.77;11.43;;;5.80;91.50;13.50;98599.00;;;;5034577;28;20201;-66
2020/12/11 07:41:53;;;;;;;17.17;11.65;;;5.80;91.50;13.50;98592.00;;;;5035587;28;20729;-66
2020/12/11 07:44:30;;;;;;;15.80;11.70;;;5.80;91.50;13.50;98585.00;;;;5034349;28;20182;-66
2020/12/11 07:46:58;;;;;;;15.85;12.10;;;5.80;91.50;13.50;98595.00;;;;5034450;28;20198;-66
2020/12/11 07:49:43;;;;;;;13.85;11.10;;;5.80;91.50;13.50;98598.00;;;;5033250;28;20217;-66
2020/12/11 07:52:09;;;;;;;15.73;11.63;;;5.80;91.50;13.40;98596.00;;;;5051210;28;20206;-66
2020/12/11 07:54:42;;;;;;;13.73;10.35;;;5.80;91.50;13.50;98593.00;;;;5050176;28;20394;-66
2020/12/11 07:57:26;;;;;;;13.88;10.75;;;5.80;91.50;13.40;98587.00;;;;5035282;28;20236;-66
2020/12/11 07:59:59;;;;;;;14.80;10.88;;;5.80;91.50;13.40;98600.00;;;;5051993;28;20261;-66
2020/12/11 08:02:24;;;;;;;12.40;10.00;;;5.80;91.50;13.50;98581.00;;;;5030350;28;20241;-66
2020/12/11 08:04:51;;;;;;;13.70;10.40;;;5.80;91.50;13.40;98591.00;;;;5030599;28;20217;-66
2020/12/11 08:07:30;;;;;;;12.65;10.13;;;5.80;91.50;13.50;98584.00;;;;5051100;28;20194;-66
2020/12/11 08:10:10;;;;;;;14.35;11.90;;;5.80;91.50;13.50;98585.00;;;;5018161;28;20330;-66
2020/12/11 08:12:36;;;;;;;14.32;11.10;;;5.80;91.60;13.30;98580.00;;;;5050542;28;20201;-66
2020/12/11 08:15:02;;;;;;;12.20;9.67;;;5.80;91.50;13.40;98586.00;;;;5017139;28;20240;-66
2020/12/11 08:17:30;;;;;;;12.32;10.13;;;5.80;91.50;13.50;98582.00;;;;5050313;28;20959;-67
2020/12/11 08:20:07;;;;;;;12.45;9.80;;;5.80;91.60;13.60;98575.00;;;;5033449;28;20518;-66
2020/12/11 08:22:39;;;;;;;11.32;9.48;;;5.80;91.50;13.60;98582.00;;;;5014014;28;20203;-66
2020/12/11 08:25:27;;;;;;;11.65;10.18;;;5.80;91.60;13.50;98575.00;;;;5028386;28;20189;-66
2020/12/11 08:27:53;;;;;;;12.20;9.20;;;5.70;91.50;13.60;98571.00;;;;5029627;28;20448;-66
2020/12/11 08:30:21;;;;;;;13.20;9.57;;;5.80;91.60;13.50;98587.00;;;;5028211;28;20855;-66
2020/12/11 08:32:47;;;;;;;10.75;8.35;;;5.80;91.60;13.50;98579.00;;;;5028163;28;20299;-66
2020/12/11 08:35:21;;;;;;;13.68;10.20;;;5.80;91.60;13.40;98570.00;;;;5027283;28;20207;-66
2020/12/11 08:37:56;;;;;;;12.23;10.05;;;5.80;91.50;13.30;98583.00;;;;5028360;28;20211;-66
2020/12/11 08:40:23;;;;;;;11.82;10.10;;;5.80;91.60;13.50;98571.00;;;;5029082;28;20186;-67
2020/12/11 08:50:37;;;;;;;11.60;10.37;;;5.70;91.50;13.50;98566.00;;;;5030894;28;20286;-67
2020/12/11 08:53:05;;;;;;;12.25;9.35;;;5.70;91.60;13.50;98558.00;;;;5033644;28;20726;-66
2020/12/11 08:55:32;;;;;;;11.75;9.80;;;5.70;91.50;13.40;98566.00;;;;5029560;28;20661;-66
2020/12/11 08:57:57;;;;;;;11.75;9.55;;;5.80;91.60;13.50;98570.00;;;;5037438;28;20252;-66
2020/12/11 09:00:23;;;;;;;11.43;9.37;;;5.80;91.60;13.50;98546.00;;;;5032272;28;20664;-66
2020/12/11 09:02:49;;;;;;;12.77;9.30;;;5.70;91.50;13.40;98551.00;;;;5033332;28;20228;-66
2020/12/11 09:05:14;;;;;;;11.33;9.00;;;5.80;91.60;13.60;98538.00;;;;5049405;28;20660;-67
2020/12/11 09:07:40;;;;;;;10.63;8.37;;;5.70;91.90;13.50;98544.00;;;;5048793;28;20214;-66
2020/12/11 09:10:06;;;;;;;11.90;9.37;;;5.80;91.60;13.50;98538.00;;;;5029581;28;20273;-66
2020/12/11 09:12:34;;;;;;;11.63;9.43;;;5.80;91.60;13.50;98542.00;;;;5029738;28;20203;-66
2020/12/11 09:15:00;;;;;;;9.80;8.80;;;5.80;91.60;13.40;98539.00;;;;5028487;28;20264;-66
2020/12/11 09:17:25;;;;;;;11.67;9.03;;;5.70;91.50;13.40;98527.00;;;;5030263;28;20665;-66
2020/12/11 09:19:51;;;;;;;10.97;8.30;;;5.70;91.50;13.60;98520.00;;;;5030546;28;20194;-66
2020/12/11 09:22:17;;;;;;;8.77;7.80;;;5.80;91.60;13.50;98516.00;;;;5028362;28;20203;-66
2020/12/11 09:24:42;;;;;;;12.10;8.50;;;5.80;91.60;13.50;98502.00;;;;5028676;28;20187;-66
2020/12/11 09:27:11;;;;;;;10.47;8.53;;;5.70;91.90;13.50;98503.00;;;;5030609;28;20211;-67
2020/12/11 09:29:40;;;;;;;10.00;8.20;;;5.80;91.60;13.50;98489.00;;;;5029688;28;20179;-67
2020/12/11 09:32:07;;;;;;;8.68;7.30;;;5.80;91.60;13.50;98495.00;;;;5031244;28;20205;-67
2020/12/11 09:34:34;;;;;;;10.13;7.90;;;5.80;92.00;13.40;98487.00;;;;5029662;28;20241;-67
2020/12/11 09:37:02;;;;;;;11.15;8.00;;;5.80;91.60;13.40;98497.00;;;;5012058;28;20297;-67
2020/12/11 09:39:27;;;;;;;10.90;8.50;;;5.80;91.60;13.40;98489.00;;;;5028419;28;20557;-67
2020/12/11 09:50:39;;;;;;;10.23;8.05;;;5.80;91.60;13.40;98477.00;;;;5030256;28;20221;-66
2020/12/11 09:53:04;;;;;;;10.18;7.90;;;5.80;91.60;13.40;98473.00;;;;5023985;28;20218;-67
2020/12/11 09:55:39;;;;;;;9.98;7.47;;;5.80;91.60;13.50;98460.00;;;;5029397;28;20242;-66
2020/12/11 09:58:05;;;;;;;9.05;6.85;;;5.80;91.60;13.50;98465.00;;;;5029483;28;20645;-67
2020/12/11 10:00:30;;;;;;;9.87;7.63;;;5.80;91.60;13.30;98459.00;;;;5029951;28;20183;-67
2020/12/11 10:03:00;;;;;;;10.70;8.60;;;5.80;91.60;13.40;98461.00;;;;5029509;28;20175;-67
2020/12/11 10:05:27;;;;;;;8.13;6.80;;;5.80;91.60;13.40;98448.00;;;;5029842;28;20186;-67
2020/12/11 10:07:52;;;;;;;10.00;7.00;;;5.70;91.60;13.50;98454.00;;;;5028812;28;20179;-66
2020/12/11 10:10:18;;;;;;;9.90;7.40;;;5.80;91.60;13.50;98448.00;;;;5028849;28;20740;-67
2020/12/11 10:12:44;;;;;;;7.43;6.30;;;5.70;91.60;13.60;98439.00;;;;5029110;28;20873;-67
2020/12/11 10:15:10;;;;;;;9.30;6.77;;;5.80;91.60;13.50;98445.00;;;;5028513;28;20293;-67
2020/12/11 10:17:38;;;;;;;9.18;6.47;;;5.80;91.60;13.50;98444.00;;;;5028919;28;20465;-67
2020/12/11 10:20:04;;;;;;;10.05;6.80;;;5.70;91.60;13.50;98439.00;;;;5028674;28;20183;-67
2020/12/11 10:22:31;;;;;;;7.93;6.43;;;5.80;91.60;13.40;98428.00;;;;5028542;28;20264;-67
2020/12/11 10:24:56;;;;;;;8.20;6.55;;;5.80;91.60;13.30;98435.00;;;;5029075;28;20812;-67
2020/12/11 10:27:22;;;;;;;8.17;6.63;;;5.80;91.60;13.30;98426.00;;;;5028457;28;20469;-67
2020/12/11 10:29:48;;;;;;;7.97;6.53;;;5.80;91.60;13.30;98429.00;;;;5030157;28;20258;-67
2020/12/11 10:32:13;;;;;;;7.77;6.17;;;5.70;91.60;13.40;98412.00;;;;5028517;28;20297;-67
2020/12/11 10:34:39;;;;;;;7.73;5.97;;;5.80;91.60;13.40;98414.00;;;;5028658;28;20222;-67
2020/12/11 10:37:12;;;;;;;8.77;6.40;;;5.80;92.00;13.40;98412.00;;;;5027960;28;20301;-67
2020/12/11 10:39:38;;;;;;;9.48;7.20;;;5.70;91.60;13.30;98419.00;;;;5028819;28;20183;-67
2020/12/11 10:42:05;;;;;;;8.93;6.63;;;5.70;91.60;13.40;98408.00;;;;5028213;28;20202;-67
2020/12/11 10:44:30;;;;;;;8.50;6.90;;;5.70;91.60;13.40;98412.00;;;;5028504;28;20175;-67
2020/12/11 10:46:56;;;;;;;8.60;6.73;;;5.70;91.60;13.50;98416.00;;;;5028032;28;20202;-67
2020/12/11 10:49:22;;;;;;;8.60;6.53;;;5.70;91.60;13.30;98405.00;;;;5029450;28;20182;-67
2020/12/11 10:51:49;;;;;;;8.53;5.87;;;5.80;91.60;13.50;98406.00;;;;5027770;28;20202;-67
2020/12/11 10:54:17;;;;;;;7.95;6.13;;;5.70;91.60;13.50;98405.00;;;;5028546;28;20461;-67
2020/12/11 10:56:45;;;;;;;9.20;6.82;;;5.70;91.60;13.40;98399.00;;;;5027890;28;20205;-67
2020/12/11 10:59:14;;;;;;;8.82;6.75;;;5.70;91.60;13.40;98402.00;;;;5028623;28;20210;-67
2020/12/11 11:01:41;;;;;;;8.85;6.80;;;5.80;91.60;13.40;98395.00;;;;5028076;28;20585;-66
2020/12/11 11:04:07;;;;;;;8.35;6.60;;;5.70;91.60;13.50;98387.00;;;;5028256;28;20176;-68
2020/12/11 11:06:41;;;;;;;8.63;6.50;;;5.70;91.60;13.30;98379.00;;;;5028021;28;20205;-67
2020/12/11 11:11:38;;;;;;;7.33;6.00;;;5.70;91.60;13.50;98371.00;;;;5029214;28;20291;-67
2020/12/11 11:24:45;;;;;;;7.65;6.07;;;5.70;91.60;13.40;98352.00;;;;5030103;28;20266;-67